sensor_id;sensor_type;location;lat;lon;timestamp;P1;durP1;ratioP1;P2;durP2;ratioP2
80681;SDS011;70045;40.200;44.582;2023-06-10T00:00:05;5.72;;;1.95;;
80681;SDS011;70045;40.200;44.582;2023-06-10T00:02:31;6.15;;;2.00;;
80681;SDS011;70045;40.200;44.582;2023-06-10T00:04:59;6.43;;;2.00;;
80681;SDS011;70045;40.200;44.582;2023-06-10T00:07:24;4.30;;;1.75;;
80681;SDS011;70045;40.200;44.582;2023-06-10T00:09:50;6.03;;;1.98;;
80681;SDS011;70045;40.200;44.582;2023-06-10T00:12:15;3.33;;;1.73;;
80681;SDS011;70045;40.200;44.582;2023-06-10T00:14:40;4.75;;;1.90;;
80681;SDS011;70045;40.200;44.582;2023-06-10T00:17:09;6.55;;;2.55;;
80681;SDS011;70045;40.200;44.582;2023-06-10T00:19:34;5.68;;;2.22;;
80681;SDS011;70045;40.200;44.582;2023-06-10T00:22:00;5.55;;;1.98;;
80681;SDS011;70045;40.200;44.582;2023-06-10T00:24:25;6.00;;;1.88;;
80681;SDS011;70045;40.200;44.582;2023-06-10T00:26:51;5.05;;;1.90;;
80681;SDS011;70045;40.200;44.582;2023-06-10T00:29:20;3.08;;;1.42;;
80681;SDS011;70045;40.200;44.582;2023-06-10T00:31:45;4.75;;;1.75;;
80681;SDS011;70045;40.200;44.582;2023-06-10T00:34:11;4.28;;;1.90;;
80681;SDS011;70045;40.200;44.582;2023-06-10T00:36:36;4.63;;;1.90;;
80681;SDS011;70045;40.200;44.582;2023-06-10T00:39:02;5.70;;;1.55;;
80681;SDS011;70045;40.200;44.582;2023-06-10T00:41:30;4.65;;;1.98;;
80681;SDS011;70045;40.200;44.582;2023-06-10T00:43:56;3.63;;;1.83;;
80681;SDS011;70045;40.200;44.582;2023-06-10T00:46:22;4.78;;;2.00;;
80681;SDS011;70045;40.200;44.582;2023-06-10T00:48:49;9.25;;;2.00;;
80681;SDS011;70045;40.200;44.582;2023-06-10T00:51:15;5.10;;;1.90;;
80681;SDS011;70045;40.200;44.582;2023-06-10T00:53:44;4.45;;;2.08;;
80681;SDS011;70045;40.200;44.582;2023-06-10T00:56:10;8.10;;;2.38;;
80681;SDS011;70045;40.200;44.582;2023-06-10T00:58:36;4.82;;;2.13;;
80681;SDS011;70045;40.200;44.582;2023-06-10T01:01:01;3.67;;;1.55;;
80681;SDS011;70045;40.200;44.582;2023-06-10T01:03:27;5.13;;;1.83;;
80681;SDS011;70045;40.200;44.582;2023-06-10T01:08:56;4.43;;;1.90;;
80681;SDS011;70045;40.200;44.582;2023-06-10T01:11:28;5.25;;;1.60;;
80681;SDS011;70045;40.200;44.582;2023-06-10T01:14:04;2.63;;;1.73;;
80681;SDS011;70045;40.200;44.582;2023-06-10T01:16:32;4.95;;;1.70;;
80681;SDS011;70045;40.200;44.582;2023-06-10T01:18:59;6.38;;;1.92;;
80681;SDS011;70045;40.200;44.582;2023-06-10T01:21:24;2.92;;;1.67;;
80681;SDS011;70045;40.200;44.582;2023-06-10T01:23:50;2.40;;;1.45;;
80681;SDS011;70045;40.200;44.582;2023-06-10T01:26:17;3.47;;;1.63;;
80681;SDS011;70045;40.200;44.582;2023-06-10T01:28:51;2.67;;;1.55;;
80681;SDS011;70045;40.200;44.582;2023-06-10T01:34:13;4.25;;;1.50;;
80681;SDS011;70045;40.200;44.582;2023-06-10T01:36:41;2.97;;;1.65;;
80681;SDS011;70045;40.200;44.582;2023-06-10T01:39:14;5.35;;;1.85;;
80681;SDS011;70045;40.200;44.582;2023-06-10T01:41:41;4.95;;;1.83;;
80681;SDS011;70045;40.200;44.582;2023-06-10T01:44:06;7.68;;;1.85;;
80681;SDS011;70045;40.200;44.582;2023-06-10T01:46:31;4.18;;;1.63;;
80681;SDS011;70045;40.200;44.582;2023-06-10T01:48:57;3.33;;;1.65;;
80681;SDS011;70045;40.200;44.582;2023-06-10T01:51:25;3.50;;;1.60;;
80681;SDS011;70045;40.200;44.582;2023-06-10T01:53:50;5.80;;;2.20;;
80681;SDS011;70045;40.200;44.582;2023-06-10T01:56:16;3.58;;;1.67;;
80681;SDS011;70045;40.200;44.582;2023-06-10T01:58:41;5.45;;;1.88;;
80681;SDS011;70045;40.200;44.582;2023-06-10T02:01:07;3.17;;;1.58;;
80681;SDS011;70045;40.200;44.582;2023-06-10T02:03:37;4.32;;;1.95;;
80681;SDS011;70045;40.200;44.582;2023-06-10T02:06:02;4.13;;;1.98;;
80681;SDS011;70045;40.200;44.582;2023-06-10T02:08:28;5.38;;;1.85;;
80681;SDS011;70045;40.200;44.582;2023-06-10T02:10:53;4.40;;;1.73;;
80681;SDS011;70045;40.200;44.582;2023-06-10T02:13:19;8.00;;;1.85;;
80681;SDS011;70045;40.200;44.582;2023-06-10T02:15:47;4.55;;;1.75;;
80681;SDS011;70045;40.200;44.582;2023-06-10T02:18:12;4.85;;;1.80;;
80681;SDS011;70045;40.200;44.582;2023-06-10T02:20:38;3.92;;;2.05;;
80681;SDS011;70045;40.200;44.582;2023-06-10T02:23:03;8.38;;;1.90;;
80681;SDS011;70045;40.200;44.582;2023-06-10T02:25:29;4.10;;;2.03;;
80681;SDS011;70045;40.200;44.582;2023-06-10T02:27:57;6.97;;;2.15;;
80681;SDS011;70045;40.200;44.582;2023-06-10T02:30:23;4.72;;;1.60;;
80681;SDS011;70045;40.200;44.582;2023-06-10T02:32:48;7.30;;;1.95;;
80681;SDS011;70045;40.200;44.582;2023-06-10T02:35:14;4.22;;;1.60;;
80681;SDS011;70045;40.200;44.582;2023-06-10T02:37:40;7.47;;;1.85;;
80681;SDS011;70045;40.200;44.582;2023-06-10T02:40:08;3.70;;;1.85;;
80681;SDS011;70045;40.200;44.582;2023-06-10T02:42:34;9.32;;;1.98;;
80681;SDS011;70045;40.200;44.582;2023-06-10T02:45:00;3.25;;;1.73;;
80681;SDS011;70045;40.200;44.582;2023-06-10T02:47:25;5.93;;;1.80;;
80681;SDS011;70045;40.200;44.582;2023-06-10T02:49:50;11.50;;;2.00;;
80681;SDS011;70045;40.200;44.582;2023-06-10T02:52:20;3.80;;;1.60;;
80681;SDS011;70045;40.200;44.582;2023-06-10T02:54:45;3.78;;;1.92;;
80681;SDS011;70045;40.200;44.582;2023-06-10T02:57:11;6.65;;;1.70;;
80681;SDS011;70045;40.200;44.582;2023-06-10T02:59:36;4.18;;;1.60;;
80681;SDS011;70045;40.200;44.582;2023-06-10T03:02:02;2.65;;;1.52;;
80681;SDS011;70045;40.200;44.582;2023-06-10T03:04:30;4.68;;;1.70;;
80681;SDS011;70045;40.200;44.582;2023-06-10T03:06:55;3.58;;;1.60;;
80681;SDS011;70045;40.200;44.582;2023-06-10T03:09:20;5.18;;;1.60;;
80681;SDS011;70045;40.200;44.582;2023-06-10T03:11:46;7.00;;;1.80;;
80681;SDS011;70045;40.200;44.582;2023-06-10T03:14:11;5.78;;;1.80;;
80681;SDS011;70045;40.200;44.582;2023-06-10T03:16:40;5.13;;;1.63;;
80681;SDS011;70045;40.200;44.582;2023-06-10T03:19:06;5.30;;;1.67;;
80681;SDS011;70045;40.200;44.582;2023-06-10T03:21:31;6.72;;;2.25;;
80681;SDS011;70045;40.200;44.582;2023-06-10T03:23:57;6.85;;;2.10;;
80681;SDS011;70045;40.200;44.582;2023-06-10T03:26:22;3.97;;;2.28;;
80681;SDS011;70045;40.200;44.582;2023-06-10T03:28:50;4.03;;;1.80;;
80681;SDS011;70045;40.200;44.582;2023-06-10T03:31:16;4.88;;;2.13;;
80681;SDS011;70045;40.200;44.582;2023-06-10T03:33:41;9.38;;;2.22;;
80681;SDS011;70045;40.200;44.582;2023-06-10T03:36:06;7.47;;;2.25;;
80681;SDS011;70045;40.200;44.582;2023-06-10T03:38:32;7.68;;;2.30;;
80681;SDS011;70045;40.200;44.582;2023-06-10T03:41:00;8.27;;;2.88;;
80681;SDS011;70045;40.200;44.582;2023-06-10T03:43:25;7.65;;;2.45;;
80681;SDS011;70045;40.200;44.582;2023-06-10T03:45:51;6.82;;;3.00;;
80681;SDS011;70045;40.200;44.582;2023-06-10T03:48:16;11.45;;;3.13;;
80681;SDS011;70045;40.200;44.582;2023-06-10T03:50:41;8.05;;;2.78;;
80681;SDS011;70045;40.200;44.582;2023-06-10T03:53:09;8.50;;;3.25;;
80681;SDS011;70045;40.200;44.582;2023-06-10T03:55:35;8.32;;;2.63;;
80681;SDS011;70045;40.200;44.582;2023-06-10T03:58:00;8.80;;;2.63;;
80681;SDS011;70045;40.200;44.582;2023-06-10T04:00:26;6.72;;;2.70;;
80681;SDS011;70045;40.200;44.582;2023-06-10T04:02:51;8.13;;;3.05;;
80681;SDS011;70045;40.200;44.582;2023-06-10T04:05:19;6.82;;;2.67;;
80681;SDS011;70045;40.200;44.582;2023-06-10T04:07:45;10.05;;;3.67;;
80681;SDS011;70045;40.200;44.582;2023-06-10T04:10:10;6.55;;;2.67;;
80681;SDS011;70045;40.200;44.582;2023-06-10T04:12:36;11.73;;;3.53;;
80681;SDS011;70045;40.200;44.582;2023-06-10T04:15:03;8.00;;;3.25;;
80681;SDS011;70045;40.200;44.582;2023-06-10T04:17:32;7.97;;;2.85;;
80681;SDS011;70045;40.200;44.582;2023-06-10T04:19:57;9.15;;;2.80;;
80681;SDS011;70045;40.200;44.582;2023-06-10T04:22:23;13.40;;;2.95;;
80681;SDS011;70045;40.200;44.582;2023-06-10T04:24:49;7.07;;;3.00;;
80681;SDS011;70045;40.200;44.582;2023-06-10T04:27:14;10.60;;;2.70;;
80681;SDS011;70045;40.200;44.582;2023-06-10T04:29:43;7.68;;;2.35;;
80681;SDS011;70045;40.200;44.582;2023-06-10T04:32:08;9.68;;;2.72;;
80681;SDS011;70045;40.200;44.582;2023-06-10T04:34:34;7.70;;;2.85;;
80681;SDS011;70045;40.200;44.582;2023-06-10T04:36:59;7.85;;;2.70;;
80681;SDS011;70045;40.200;44.582;2023-06-10T04:39:25;7.28;;;2.30;;
80681;SDS011;70045;40.200;44.582;2023-06-10T04:41:53;8.13;;;2.58;;
80681;SDS011;70045;40.200;44.582;2023-06-10T04:44:18;9.20;;;2.70;;
80681;SDS011;70045;40.200;44.582;2023-06-10T04:46:44;7.95;;;2.20;;
80681;SDS011;70045;40.200;44.582;2023-06-10T04:49:09;4.38;;;1.88;;
80681;SDS011;70045;40.200;44.582;2023-06-10T04:51:35;4.20;;;2.10;;
80681;SDS011;70045;40.200;44.582;2023-06-10T04:54:03;7.28;;;2.50;;
80681;SDS011;70045;40.200;44.582;2023-06-10T04:56:29;6.78;;;2.25;;
80681;SDS011;70045;40.200;44.582;2023-06-10T04:58:56;8.02;;;2.30;;
80681;SDS011;70045;40.200;44.582;2023-06-10T05:01:21;7.75;;;2.47;;
80681;SDS011;70045;40.200;44.582;2023-06-10T05:03:47;7.28;;;2.40;;
80681;SDS011;70045;40.200;44.582;2023-06-10T05:06:15;5.57;;;2.38;;
80681;SDS011;70045;40.200;44.582;2023-06-10T05:08:40;5.80;;;1.90;;
80681;SDS011;70045;40.200;44.582;2023-06-10T05:11:06;8.57;;;2.50;;
80681;SDS011;70045;40.200;44.582;2023-06-10T05:13:31;5.22;;;2.38;;
80681;SDS011;70045;40.200;44.582;2023-06-10T05:15:57;6.15;;;2.00;;
80681;SDS011;70045;40.200;44.582;2023-06-10T05:18:25;6.47;;;1.98;;
80681;SDS011;70045;40.200;44.582;2023-06-10T05:20:51;5.82;;;2.10;;
80681;SDS011;70045;40.200;44.582;2023-06-10T05:23:16;4.70;;;1.83;;
80681;SDS011;70045;40.200;44.582;2023-06-10T05:25:42;6.10;;;2.03;;
80681;SDS011;70045;40.200;44.582;2023-06-10T05:28:07;3.97;;;1.70;;
80681;SDS011;70045;40.200;44.582;2023-06-10T05:30:36;4.20;;;1.65;;
80681;SDS011;70045;40.200;44.582;2023-06-10T05:33:02;5.07;;;2.05;;
80681;SDS011;70045;40.200;44.582;2023-06-10T05:35:28;5.63;;;1.70;;
80681;SDS011;70045;40.200;44.582;2023-06-10T05:37:54;5.63;;;2.13;;
80681;SDS011;70045;40.200;44.582;2023-06-10T05:40:19;5.32;;;1.83;;
80681;SDS011;70045;40.200;44.582;2023-06-10T05:42:47;6.13;;;2.28;;
80681;SDS011;70045;40.200;44.582;2023-06-10T05:45:13;10.82;;;2.28;;
80681;SDS011;70045;40.200;44.582;2023-06-10T05:47:38;6.68;;;2.35;;
80681;SDS011;70045;40.200;44.582;2023-06-10T05:50:04;9.35;;;2.30;;
80681;SDS011;70045;40.200;44.582;2023-06-10T05:52:30;8.82;;;2.85;;
80681;SDS011;70045;40.200;44.582;2023-06-10T05:54:58;10.63;;;2.95;;
80681;SDS011;70045;40.200;44.582;2023-06-10T05:57:23;11.82;;;2.40;;
80681;SDS011;70045;40.200;44.582;2023-06-10T05:59:49;9.23;;;2.55;;
80681;SDS011;70045;40.200;44.582;2023-06-10T06:02:14;6.78;;;2.05;;
80681;SDS011;70045;40.200;44.582;2023-06-10T06:04:39;10.50;;;3.10;;
80681;SDS011;70045;40.200;44.582;2023-06-10T06:07:07;6.20;;;2.42;;
80681;SDS011;70045;40.200;44.582;2023-06-10T06:09:33;7.57;;;2.08;;
80681;SDS011;70045;40.200;44.582;2023-06-10T06:11:58;6.43;;;2.20;;
80681;SDS011;70045;40.200;44.582;2023-06-10T06:14:24;8.10;;;2.20;;
80681;SDS011;70045;40.200;44.582;2023-06-10T06:16:49;7.05;;;1.90;;
80681;SDS011;70045;40.200;44.582;2023-06-10T06:19:17;5.28;;;2.25;;
80681;SDS011;70045;40.200;44.582;2023-06-10T06:21:43;9.48;;;2.33;;
80681;SDS011;70045;40.200;44.582;2023-06-10T06:24:08;5.90;;;2.03;;
80681;SDS011;70045;40.200;44.582;2023-06-10T06:26:33;5.85;;;2.25;;
80681;SDS011;70045;40.200;44.582;2023-06-10T06:28:59;12.18;;;2.20;;
80681;SDS011;70045;40.200;44.582;2023-06-10T06:31:27;5.28;;;2.33;;
80681;SDS011;70045;40.200;44.582;2023-06-10T06:33:52;8.50;;;2.22;;
80681;SDS011;70045;40.200;44.582;2023-06-10T06:36:18;6.93;;;2.30;;
80681;SDS011;70045;40.200;44.582;2023-06-10T06:38:43;6.97;;;2.13;;
80681;SDS011;70045;40.200;44.582;2023-06-10T06:41:09;7.10;;;2.20;;
80681;SDS011;70045;40.200;44.582;2023-06-10T06:43:37;10.02;;;2.60;;
80681;SDS011;70045;40.200;44.582;2023-06-10T06:46:02;7.55;;;2.40;;
80681;SDS011;70045;40.200;44.582;2023-06-10T06:48:27;10.27;;;2.50;;
80681;SDS011;70045;40.200;44.582;2023-06-10T06:50:53;7.47;;;2.35;;
80681;SDS011;70045;40.200;44.582;2023-06-10T06:53:18;7.13;;;2.30;;
80681;SDS011;70045;40.200;44.582;2023-06-10T06:55:46;7.90;;;2.45;;
80681;SDS011;70045;40.200;44.582;2023-06-10T06:58:12;5.70;;;2.40;;
80681;SDS011;70045;40.200;44.582;2023-06-10T07:00:37;4.68;;;2.58;;
80681;SDS011;70045;40.200;44.582;2023-06-10T07:03:03;5.65;;;2.25;;
80681;SDS011;70045;40.200;44.582;2023-06-10T07:05:28;7.25;;;2.60;;
80681;SDS011;70045;40.200;44.582;2023-06-10T07:07:56;12.07;;;3.17;;
80681;SDS011;70045;40.200;44.582;2023-06-10T07:10:22;6.63;;;2.70;;
80681;SDS011;70045;40.200;44.582;2023-06-10T07:12:48;8.85;;;2.30;;
80681;SDS011;70045;40.200;44.582;2023-06-10T07:15:14;5.45;;;2.55;;
80681;SDS011;70045;40.200;44.582;2023-06-10T07:17:39;8.07;;;2.85;;
80681;SDS011;70045;40.200;44.582;2023-06-10T07:20:07;8.40;;;2.72;;
80681;SDS011;70045;40.200;44.582;2023-06-10T07:22:33;6.05;;;2.33;;
80681;SDS011;70045;40.200;44.582;2023-06-10T07:24:58;5.50;;;2.38;;
80681;SDS011;70045;40.200;44.582;2023-06-10T07:27:24;6.50;;;2.50;;
80681;SDS011;70045;40.200;44.582;2023-06-10T07:29:50;7.28;;;2.10;;
80681;SDS011;70045;40.200;44.582;2023-06-10T07:32:19;5.68;;;2.65;;
80681;SDS011;70045;40.200;44.582;2023-06-10T07:34:45;6.72;;;2.45;;
80681;SDS011;70045;40.200;44.582;2023-06-10T07:37:10;7.05;;;2.17;;
80681;SDS011;70045;40.200;44.582;2023-06-10T07:39:35;8.48;;;2.58;;
80681;SDS011;70045;40.200;44.582;2023-06-10T07:42:01;7.75;;;2.28;;
80681;SDS011;70045;40.200;44.582;2023-06-10T07:44:29;7.07;;;2.78;;
80681;SDS011;70045;40.200;44.582;2023-06-10T07:46:54;8.00;;;2.53;;
80681;SDS011;70045;40.200;44.582;2023-06-10T07:49:20;5.90;;;2.20;;
80681;SDS011;70045;40.200;44.582;2023-06-10T07:51:45;6.18;;;2.35;;
80681;SDS011;70045;40.200;44.582;2023-06-10T07:54:10;4.55;;;2.00;;
80681;SDS011;70045;40.200;44.582;2023-06-10T07:56:39;7.28;;;2.42;;
80681;SDS011;70045;40.200;44.582;2023-06-10T07:59:04;5.75;;;2.10;;
80681;SDS011;70045;40.200;44.582;2023-06-10T08:01:29;8.95;;;2.28;;
80681;SDS011;70045;40.200;44.582;2023-06-10T08:03:55;7.57;;;2.20;;
80681;SDS011;70045;40.200;44.582;2023-06-10T08:06:20;5.80;;;2.10;;
80681;SDS011;70045;40.200;44.582;2023-06-10T08:08:48;6.32;;;2.10;;
80681;SDS011;70045;40.200;44.582;2023-06-10T08:11:14;5.70;;;2.20;;
80681;SDS011;70045;40.200;44.582;2023-06-10T08:13:39;3.20;;;1.90;;
80681;SDS011;70045;40.200;44.582;2023-06-10T08:16:05;5.85;;;2.47;;
80681;SDS011;70045;40.200;44.582;2023-06-10T08:18:30;4.38;;;2.03;;
80681;SDS011;70045;40.200;44.582;2023-06-10T08:20:59;6.95;;;2.05;;
80681;SDS011;70045;40.200;44.582;2023-06-10T08:23:24;4.20;;;2.10;;
80681;SDS011;70045;40.200;44.582;2023-06-10T08:25:49;5.40;;;2.25;;
80681;SDS011;70045;40.200;44.582;2023-06-10T08:28:15;5.30;;;2.42;;
80681;SDS011;70045;40.200;44.582;2023-06-10T08:30:40;6.38;;;1.92;;
80681;SDS011;70045;40.200;44.582;2023-06-10T08:33:08;5.25;;;1.83;;
80681;SDS011;70045;40.200;44.582;2023-06-10T08:35:34;6.10;;;1.90;;
80681;SDS011;70045;40.200;44.582;2023-06-10T08:37:59;3.67;;;1.80;;
80681;SDS011;70045;40.200;44.582;2023-06-10T08:40:24;6.05;;;2.30;;
80681;SDS011;70045;40.200;44.582;2023-06-10T08:42:57;9.20;;;2.60;;
80681;SDS011;70045;40.200;44.582;2023-06-10T08:45:31;9.13;;;2.17;;
80681;SDS011;70045;40.200;44.582;2023-06-10T08:47:56;6.95;;;2.85;;
80681;SDS011;70045;40.200;44.582;2023-06-10T08:50:22;8.00;;;2.20;;
80681;SDS011;70045;40.200;44.582;2023-06-10T08:52:48;6.20;;;2.03;;
80681;SDS011;70045;40.200;44.582;2023-06-10T08:55:19;8.35;;;1.90;;
80681;SDS011;70045;40.200;44.582;2023-06-10T08:57:51;9.45;;;2.40;;
80681;SDS011;70045;40.200;44.582;2023-06-10T09:00:18;3.92;;;2.13;;
80681;SDS011;70045;40.200;44.582;2023-06-10T09:02:44;8.00;;;1.98;;
80681;SDS011;70045;40.200;44.582;2023-06-10T09:05:10;6.70;;;2.10;;
80681;SDS011;70045;40.200;44.582;2023-06-10T09:07:36;5.53;;;1.85;;
80681;SDS011;70045;40.200;44.582;2023-06-10T09:10:04;3.45;;;1.75;;
80681;SDS011;70045;40.200;44.582;2023-06-10T09:12:30;7.72;;;2.30;;
80681;SDS011;70045;40.200;44.582;2023-06-10T09:14:55;7.13;;;2.05;;
80681;SDS011;70045;40.200;44.582;2023-06-10T09:17:21;9.27;;;2.33;;
80681;SDS011;70045;40.200;44.582;2023-06-10T09:19:47;5.55;;;2.10;;
80681;SDS011;70045;40.200;44.582;2023-06-10T09:22:16;6.03;;;1.90;;
80681;SDS011;70045;40.200;44.582;2023-06-10T09:27:08;7.33;;;2.30;;
80681;SDS011;70045;40.200;44.582;2023-06-10T09:30:07;6.05;;;1.90;;
80681;SDS011;70045;40.200;44.582;2023-06-10T09:32:28;8.35;;;2.08;;
80681;SDS011;70045;40.200;44.582;2023-06-10T09:34:54;8.70;;;2.05;;
80681;SDS011;70045;40.200;44.582;2023-06-10T09:37:23;3.58;;;1.80;;
80681;SDS011;70045;40.200;44.582;2023-06-10T09:40:02;3.60;;;1.65;;
80681;SDS011;70045;40.200;44.582;2023-06-10T09:42:32;5.30;;;2.05;;
80681;SDS011;70045;40.200;44.582;2023-06-10T09:44:59;5.47;;;1.92;;
80681;SDS011;70045;40.200;44.582;2023-06-10T09:47:24;7.63;;;2.17;;
80681;SDS011;70045;40.200;44.582;2023-06-10T09:49:50;8.70;;;1.77;;
80681;SDS011;70045;40.200;44.582;2023-06-10T09:52:24;6.35;;;2.00;;
80681;SDS011;70045;40.200;44.582;2023-06-10T09:54:54;4.90;;;2.20;;
80681;SDS011;70045;40.200;44.582;2023-06-10T09:57:25;4.60;;;1.58;;
80681;SDS011;70045;40.200;44.582;2023-06-10T09:59:54;5.10;;;1.80;;
80681;SDS011;70045;40.200;44.582;2023-06-10T10:02:20;7.35;;;2.03;;
80681;SDS011;70045;40.200;44.582;2023-06-10T10:04:45;6.63;;;2.25;;
80681;SDS011;70045;40.200;44.582;2023-06-10T10:07:14;10.20;;;2.60;;
80681;SDS011;70045;40.200;44.582;2023-06-10T10:09:40;5.32;;;1.90;;
80681;SDS011;70045;40.200;44.582;2023-06-10T10:12:09;4.90;;;2.00;;
80681;SDS011;70045;40.200;44.582;2023-06-10T10:14:36;8.20;;;1.98;;
80681;SDS011;70045;40.200;44.582;2023-06-10T10:17:02;6.32;;;2.35;;
80681;SDS011;70045;40.200;44.582;2023-06-10T10:19:37;7.72;;;2.00;;
80681;SDS011;70045;40.200;44.582;2023-06-10T10:22:08;8.98;;;2.50;;
80681;SDS011;70045;40.200;44.582;2023-06-10T10:24:38;6.05;;;2.30;;
80681;SDS011;70045;40.200;44.582;2023-06-10T10:27:17;12.57;;;2.20;;
80681;SDS011;70045;40.200;44.582;2023-06-10T10:29:49;10.90;;;2.60;;
80681;SDS011;70045;40.200;44.582;2023-06-10T10:32:18;8.73;;;2.80;;
80681;SDS011;70045;40.200;44.582;2023-06-10T10:37:42;6.07;;;2.40;;
80681;SDS011;70045;40.200;44.582;2023-06-10T10:40:10;8.45;;;2.80;;
80681;SDS011;70045;40.200;44.582;2023-06-10T10:42:37;7.20;;;2.42;;
80681;SDS011;70045;40.200;44.582;2023-06-10T10:45:03;8.80;;;2.60;;
80681;SDS011;70045;40.200;44.582;2023-06-10T10:47:30;11.52;;;2.78;;
80681;SDS011;70045;40.200;44.582;2023-06-10T10:49:56;6.40;;;2.20;;
80681;SDS011;70045;40.200;44.582;2023-06-10T10:52:24;7.95;;;2.50;;
80681;SDS011;70045;40.200;44.582;2023-06-10T10:54:52;8.90;;;2.50;;
80681;SDS011;70045;40.200;44.582;2023-06-10T10:57:19;10.65;;;2.47;;
80681;SDS011;70045;40.200;44.582;2023-06-10T11:05:15;9.45;;;3.03;;
80681;SDS011;70045;40.200;44.582;2023-06-10T11:10:16;6.68;;;2.38;;
80681;SDS011;70045;40.200;44.582;2023-06-10T11:15:13;9.43;;;2.50;;
80681;SDS011;70045;40.200;44.582;2023-06-10T11:23:25;6.47;;;2.10;;
80681;SDS011;70045;40.200;44.582;2023-06-10T11:31:21;5.68;;;2.42;;
80681;SDS011;70045;40.200;44.582;2023-06-10T11:33:48;6.13;;;2.58;;
80681;SDS011;70045;40.200;44.582;2023-06-10T11:36:30;11.68;;;2.80;;
80681;SDS011;70045;40.200;44.582;2023-06-10T11:41:26;10.90;;;4.15;;
80681;SDS011;70045;40.200;44.582;2023-06-10T11:43:52;12.05;;;3.10;;
80681;SDS011;70045;40.200;44.582;2023-06-10T11:46:18;21.00;;;7.47;;
80681;SDS011;70045;40.200;44.582;2023-06-10T11:48:57;9.90;;;3.75;;
80681;SDS011;70045;40.200;44.582;2023-06-10T11:51:32;8.82;;;3.10;;
80681;SDS011;70045;40.200;44.582;2023-06-10T11:54:01;7.93;;;3.10;;
80681;SDS011;70045;40.200;44.582;2023-06-10T11:56:28;11.45;;;3.42;;
80681;SDS011;70045;40.200;44.582;2023-06-10T11:58:59;10.80;;;2.88;;
80681;SDS011;70045;40.200;44.582;2023-06-10T12:01:26;11.73;;;3.83;;
80681;SDS011;70045;40.200;44.582;2023-06-10T12:06:40;26.15;;;13.45;;
80681;SDS011;70045;40.200;44.582;2023-06-10T12:11:55;29.90;;;13.15;;
80681;SDS011;70045;40.200;44.582;2023-06-10T12:19:58;11.90;;;3.38;;
80681;SDS011;70045;40.200;44.582;2023-06-10T12:22:35;16.92;;;5.38;;
80681;SDS011;70045;40.200;44.582;2023-06-10T12:25:02;12.60;;;3.10;;
80681;SDS011;70045;40.200;44.582;2023-06-10T12:27:29;7.57;;;2.90;;
80681;SDS011;70045;40.200;44.582;2023-06-10T12:29:56;17.98;;;3.10;;
80681;SDS011;70045;40.200;44.582;2023-06-10T12:32:39;12.00;;;3.70;;
80681;SDS011;70045;40.200;44.582;2023-06-10T12:35:06;11.50;;;3.13;;
80681;SDS011;70045;40.200;44.582;2023-06-10T12:37:32;16.48;;;3.75;;
80681;SDS011;70045;40.200;44.582;2023-06-10T12:39:57;9.57;;;3.40;;
80681;SDS011;70045;40.200;44.582;2023-06-10T12:42:28;7.80;;;2.97;;
80681;SDS011;70045;40.200;44.582;2023-06-10T12:44:55;11.73;;;2.97;;
80681;SDS011;70045;40.200;44.582;2023-06-10T12:47:21;5.70;;;2.60;;
80681;SDS011;70045;40.200;44.582;2023-06-10T12:49:54;11.00;;;2.90;;
80681;SDS011;70045;40.200;44.582;2023-06-10T12:52:20;7.78;;;2.70;;
80681;SDS011;70045;40.200;44.582;2023-06-10T12:54:48;9.20;;;2.70;;
80681;SDS011;70045;40.200;44.582;2023-06-10T12:57:13;6.55;;;2.30;;
80681;SDS011;70045;40.200;44.582;2023-06-10T12:59:39;4.40;;;2.35;;
80681;SDS011;70045;40.200;44.582;2023-06-10T13:02:04;6.00;;;2.10;;
80681;SDS011;70045;40.200;44.582;2023-06-10T13:04:30;6.05;;;2.50;;
80681;SDS011;70045;40.200;44.582;2023-06-10T13:06:58;7.00;;;2.40;;
80681;SDS011;70045;40.200;44.582;2023-06-10T13:09:24;7.05;;;2.70;;
80681;SDS011;70045;40.200;44.582;2023-06-10T13:11:49;10.95;;;3.88;;
80681;SDS011;70045;40.200;44.582;2023-06-10T13:14:15;9.05;;;4.50;;
80681;SDS011;70045;40.200;44.582;2023-06-10T13:16:40;17.55;;;4.10;;
80681;SDS011;70045;40.200;44.582;2023-06-10T13:19:08;7.45;;;3.40;;
80681;SDS011;70045;40.200;44.582;2023-06-10T13:21:34;8.05;;;3.15;;
80681;SDS011;70045;40.200;44.582;2023-06-10T13:23:59;7.22;;;3.00;;
80681;SDS011;70045;40.200;44.582;2023-06-10T13:26:25;11.30;;;3.17;;
80681;SDS011;70045;40.200;44.582;2023-06-10T13:28:50;12.38;;;4.72;;
80681;SDS011;70045;40.200;44.582;2023-06-10T13:31:18;15.15;;;6.50;;
80681;SDS011;70045;40.200;44.582;2023-06-10T13:33:44;14.88;;;5.68;;
80681;SDS011;70045;40.200;44.582;2023-06-10T13:36:09;7.30;;;3.05;;
80681;SDS011;70045;40.200;44.582;2023-06-10T13:38:35;7.97;;;2.70;;
80681;SDS011;70045;40.200;44.582;2023-06-10T13:41:00;9.95;;;2.60;;
80681;SDS011;70045;40.200;44.582;2023-06-10T13:43:28;10.63;;;2.60;;
80681;SDS011;70045;40.200;44.582;2023-06-10T13:45:54;7.63;;;2.38;;
80681;SDS011;70045;40.200;44.582;2023-06-10T13:48:19;10.23;;;2.88;;
80681;SDS011;70045;40.200;44.582;2023-06-10T13:50:45;9.27;;;3.47;;
80681;SDS011;70045;40.200;44.582;2023-06-10T13:53:10;10.55;;;3.00;;
80681;SDS011;70045;40.200;44.582;2023-06-10T13:55:39;11.88;;;3.80;;
80681;SDS011;70045;40.200;44.582;2023-06-10T13:58:04;10.57;;;3.50;;
80681;SDS011;70045;40.200;44.582;2023-06-10T14:00:30;10.18;;;3.78;;
80681;SDS011;70045;40.200;44.582;2023-06-10T14:02:55;11.25;;;3.90;;
80681;SDS011;70045;40.200;44.582;2023-06-10T14:05:20;9.07;;;3.45;;
80681;SDS011;70045;40.200;44.582;2023-06-10T14:07:48;12.18;;;4.07;;
80681;SDS011;70045;40.200;44.582;2023-06-10T14:10:14;12.32;;;3.92;;
80681;SDS011;70045;40.200;44.582;2023-06-10T14:12:39;9.25;;;3.65;;
80681;SDS011;70045;40.200;44.582;2023-06-10T14:15:05;8.38;;;3.08;;
80681;SDS011;70045;40.200;44.582;2023-06-10T14:17:30;11.88;;;3.20;;
80681;SDS011;70045;40.200;44.582;2023-06-10T14:19:58;9.48;;;3.03;;
80681;SDS011;70045;40.200;44.582;2023-06-10T14:22:24;9.95;;;3.10;;
80681;SDS011;70045;40.200;44.582;2023-06-10T14:24:49;6.70;;;2.55;;
80681;SDS011;70045;40.200;44.582;2023-06-10T14:27:15;9.73;;;3.03;;
80681;SDS011;70045;40.200;44.582;2023-06-10T14:29:40;5.57;;;2.33;;
80681;SDS011;70045;40.200;44.582;2023-06-10T14:32:08;8.80;;;2.30;;
80681;SDS011;70045;40.200;44.582;2023-06-10T14:34:33;8.65;;;2.95;;
80681;SDS011;70045;40.200;44.582;2023-06-10T14:36:59;5.88;;;2.17;;
80681;SDS011;70045;40.200;44.582;2023-06-10T14:39:25;6.20;;;2.67;;
80681;SDS011;70045;40.200;44.582;2023-06-10T14:41:51;9.63;;;2.90;;
80681;SDS011;70045;40.200;44.582;2023-06-10T14:44:19;6.05;;;2.58;;
80681;SDS011;70045;40.200;44.582;2023-06-10T14:46:44;8.70;;;2.95;;
80681;SDS011;70045;40.200;44.582;2023-06-10T14:49:10;9.10;;;2.63;;
80681;SDS011;70045;40.200;44.582;2023-06-10T14:51:35;7.63;;;2.42;;
80681;SDS011;70045;40.200;44.582;2023-06-10T14:54:00;7.93;;;2.60;;
80681;SDS011;70045;40.200;44.582;2023-06-10T14:56:28;7.50;;;2.88;;
80681;SDS011;70045;40.200;44.582;2023-06-10T14:58:54;6.60;;;2.40;;
80681;SDS011;70045;40.200;44.582;2023-06-10T15:01:19;5.50;;;2.40;;
80681;SDS011;70045;40.200;44.582;2023-06-10T15:03:45;7.88;;;3.15;;
80681;SDS011;70045;40.200;44.582;2023-06-10T15:06:10;9.32;;;2.65;;
80681;SDS011;70045;40.200;44.582;2023-06-10T15:08:38;6.82;;;2.70;;
80681;SDS011;70045;40.200;44.582;2023-06-10T15:11:03;10.40;;;3.03;;
80681;SDS011;70045;40.200;44.582;2023-06-10T15:13:29;5.45;;;2.72;;
80681;SDS011;70045;40.200;44.582;2023-06-10T15:15:54;5.43;;;2.80;;